sensor_id;sensor_type;location;lat;lon;timestamp;P1;durP1;ratioP1;P2;durP2;ratioP2
12535;SDS011;6334;48.696;2.114;2024-02-21T00:00:11;10.53;;;5.30;;
12535;SDS011;6334;48.696;2.114;2024-02-21T00:02:42;10.13;;;5.00;;
12535;SDS011;6334;48.696;2.114;2024-02-21T00:05:12;12.40;;;5.50;;
12535;SDS011;6334;48.696;2.114;2024-02-21T00:07:43;12.00;;;5.20;;
12535;SDS011;6334;48.696;2.114;2024-02-21T00:10:13;10.63;;;5.03;;
12535;SDS011;6334;48.696;2.114;2024-02-21T00:12:44;15.20;;;5.83;;
12535;SDS011;6334;48.696;2.114;2024-02-21T00:15:14;11.43;;;5.17;;
12535;SDS011;6334;48.696;2.114;2024-02-21T00:17:45;10.23;;;4.83;;
12535;SDS011;6334;48.696;2.114;2024-02-21T00:20:15;10.67;;;5.23;;
12535;SDS011;6334;48.696;2.114;2024-02-21T00:22:46;11.00;;;5.33;;
12535;SDS011;6334;48.696;2.114;2024-02-21T00:25:16;8.87;;;5.20;;
12535;SDS011;6334;48.696;2.114;2024-02-21T00:27:47;10.97;;;4.80;;
12535;SDS011;6334;48.696;2.114;2024-02-21T00:30:17;9.67;;;4.70;;
12535;SDS011;6334;48.696;2.114;2024-02-21T00:32:48;8.90;;;5.13;;
12535;SDS011;6334;48.696;2.114;2024-02-21T00:35:18;9.83;;;4.87;;
12535;SDS011;6334;48.696;2.114;2024-02-21T00:37:49;10.90;;;5.13;;
12535;SDS011;6334;48.696;2.114;2024-02-21T00:40:19;8.13;;;4.33;;
12535;SDS011;6334;48.696;2.114;2024-02-21T00:42:49;9.73;;;5.00;;
12535;SDS011;6334;48.696;2.114;2024-02-21T00:45:20;12.63;;;5.20;;
12535;SDS011;6334;48.696;2.114;2024-02-21T00:47:50;10.33;;;4.83;;
12535;SDS011;6334;48.696;2.114;2024-02-21T00:50:21;9.87;;;5.07;;
12535;SDS011;6334;48.696;2.114;2024-02-21T00:52:51;8.60;;;4.77;;
12535;SDS011;6334;48.696;2.114;2024-02-21T00:55:22;9.73;;;4.93;;
12535;SDS011;6334;48.696;2.114;2024-02-21T00:57:52;9.87;;;4.80;;
12535;SDS011;6334;48.696;2.114;2024-02-21T01:00:23;10.77;;;4.80;;
12535;SDS011;6334;48.696;2.114;2024-02-21T01:02:53;10.47;;;4.83;;
12535;SDS011;6334;48.696;2.114;2024-02-21T01:05:24;9.83;;;5.13;;
12535;SDS011;6334;48.696;2.114;2024-02-21T01:07:54;8.40;;;4.73;;
12535;SDS011;6334;48.696;2.114;2024-02-21T01:10:25;10.67;;;5.23;;
12535;SDS011;6334;48.696;2.114;2024-02-21T01:12:55;9.07;;;4.90;;
12535;SDS011;6334;48.696;2.114;2024-02-21T01:15:25;11.00;;;5.37;;
12535;SDS011;6334;48.696;2.114;2024-02-21T01:17:56;10.40;;;4.80;;
12535;SDS011;6334;48.696;2.114;2024-02-21T01:20:26;14.17;;;5.13;;
12535;SDS011;6334;48.696;2.114;2024-02-21T01:22:57;11.57;;;5.20;;
12535;SDS011;6334;48.696;2.114;2024-02-21T01:25:27;10.07;;;5.00;;
12535;SDS011;6334;48.696;2.114;2024-02-21T01:27:58;10.27;;;4.90;;
12535;SDS011;6334;48.696;2.114;2024-02-21T01:30:28;10.13;;;5.00;;
12535;SDS011;6334;48.696;2.114;2024-02-21T01:32:59;8.67;;;5.03;;
12535;SDS011;6334;48.696;2.114;2024-02-21T01:35:29;10.37;;;4.77;;
12535;SDS011;6334;48.696;2.114;2024-02-21T01:37:59;9.50;;;4.50;;
12535;SDS011;6334;48.696;2.114;2024-02-21T01:40:30;10.40;;;5.17;;
12535;SDS011;6334;48.696;2.114;2024-02-21T01:43:00;10.13;;;4.80;;
12535;SDS011;6334;48.696;2.114;2024-02-21T01:45:30;11.30;;;4.73;;
12535;SDS011;6334;48.696;2.114;2024-02-21T01:48:00;11.70;;;5.67;;
12535;SDS011;6334;48.696;2.114;2024-02-21T01:50:31;9.87;;;4.83;;
12535;SDS011;6334;48.696;2.114;2024-02-21T01:53:01;7.37;;;4.63;;
12535;SDS011;6334;48.696;2.114;2024-02-21T01:55:32;8.90;;;4.97;;
12535;SDS011;6334;48.696;2.114;2024-02-21T01:58:02;10.73;;;4.80;;
12535;SDS011;6334;48.696;2.114;2024-02-21T02:00:33;10.10;;;4.90;;
12535;SDS011;6334;48.696;2.114;2024-02-21T02:03:03;10.30;;;5.23;;
12535;SDS011;6334;48.696;2.114;2024-02-21T02:05:34;10.80;;;5.53;;
12535;SDS011;6334;48.696;2.114;2024-02-21T02:08:03;11.37;;;5.40;;
12535;SDS011;6334;48.696;2.114;2024-02-21T02:10:34;11.20;;;5.17;;
12535;SDS011;6334;48.696;2.114;2024-02-21T02:13:04;9.27;;;4.73;;
12535;SDS011;6334;48.696;2.114;2024-02-21T02:15:40;10.27;;;5.10;;
12535;SDS011;6334;48.696;2.114;2024-02-21T02:18:11;11.83;;;5.37;;
12535;SDS011;6334;48.696;2.114;2024-02-21T02:20:41;9.20;;;5.37;;
12535;SDS011;6334;48.696;2.114;2024-02-21T02:23:23;13.00;;;6.07;;
12535;SDS011;6334;48.696;2.114;2024-02-21T02:25:52;9.60;;;5.43;;
12535;SDS011;6334;48.696;2.114;2024-02-21T02:28:23;8.47;;;5.37;;
12535;SDS011;6334;48.696;2.114;2024-02-21T02:30:53;10.27;;;5.27;;
12535;SDS011;6334;48.696;2.114;2024-02-21T02:33:25;12.47;;;5.03;;
12535;SDS011;6334;48.696;2.114;2024-02-21T02:35:56;11.30;;;5.20;;
12535;SDS011;6334;48.696;2.114;2024-02-21T02:38:26;8.87;;;5.00;;
12535;SDS011;6334;48.696;2.114;2024-02-21T02:40:56;8.93;;;5.30;;
12535;SDS011;6334;48.696;2.114;2024-02-21T02:43:27;13.53;;;5.87;;
12535;SDS011;6334;48.696;2.114;2024-02-21T02:45:57;9.53;;;5.63;;
12535;SDS011;6334;48.696;2.114;2024-02-21T02:48:28;10.20;;;5.70;;
12535;SDS011;6334;48.696;2.114;2024-02-21T02:50:58;8.63;;;5.53;;
12535;SDS011;6334;48.696;2.114;2024-02-21T02:53:29;10.30;;;5.43;;
12535;SDS011;6334;48.696;2.114;2024-02-21T02:55:59;8.83;;;5.40;;
12535;SDS011;6334;48.696;2.114;2024-02-21T02:58:30;11.70;;;5.37;;
12535;SDS011;6334;48.696;2.114;2024-02-21T03:01:00;8.23;;;5.17;;
12535;SDS011;6334;48.696;2.114;2024-02-21T03:03:31;9.97;;;5.20;;
12535;SDS011;6334;48.696;2.114;2024-02-21T03:06:01;9.03;;;5.00;;
12535;SDS011;6334;48.696;2.114;2024-02-21T03:08:31;10.43;;;5.50;;
12535;SDS011;6334;48.696;2.114;2024-02-21T03:11:02;12.27;;;5.80;;
12535;SDS011;6334;48.696;2.114;2024-02-21T03:13:32;9.60;;;5.47;;
12535;SDS011;6334;48.696;2.114;2024-02-21T03:16:03;11.17;;;5.50;;
12535;SDS011;6334;48.696;2.114;2024-02-21T03:18:33;12.63;;;6.10;;
12535;SDS011;6334;48.696;2.114;2024-02-21T03:21:04;11.07;;;5.20;;
12535;SDS011;6334;48.696;2.114;2024-02-21T03:23:34;13.17;;;6.10;;
12535;SDS011;6334;48.696;2.114;2024-02-21T03:26:05;9.53;;;5.33;;
12535;SDS011;6334;48.696;2.114;2024-02-21T03:28:35;9.57;;;5.40;;
12535;SDS011;6334;48.696;2.114;2024-02-21T03:31:06;10.40;;;5.20;;
12535;SDS011;6334;48.696;2.114;2024-02-21T03:33:36;10.63;;;5.40;;
12535;SDS011;6334;48.696;2.114;2024-02-21T03:36:07;10.30;;;5.47;;
12535;SDS011;6334;48.696;2.114;2024-02-21T03:38:37;7.70;;;5.20;;
12535;SDS011;6334;48.696;2.114;2024-02-21T03:41:07;11.97;;;5.30;;
12535;SDS011;6334;48.696;2.114;2024-02-21T03:43:38;11.77;;;5.50;;
12535;SDS011;6334;48.696;2.114;2024-02-21T03:46:08;11.37;;;5.50;;
12535;SDS011;6334;48.696;2.114;2024-02-21T03:48:39;10.90;;;5.83;;
12535;SDS011;6334;48.696;2.114;2024-02-21T03:51:09;10.03;;;5.23;;
12535;SDS011;6334;48.696;2.114;2024-02-21T03:53:40;9.30;;;5.17;;
12535;SDS011;6334;48.696;2.114;2024-02-21T03:56:10;11.40;;;5.37;;
12535;SDS011;6334;48.696;2.114;2024-02-21T03:58:41;8.50;;;5.50;;
12535;SDS011;6334;48.696;2.114;2024-02-21T04:01:11;9.13;;;4.73;;
12535;SDS011;6334;48.696;2.114;2024-02-21T04:03:42;9.63;;;5.30;;
12535;SDS011;6334;48.696;2.114;2024-02-21T04:06:12;8.67;;;5.17;;
12535;SDS011;6334;48.696;2.114;2024-02-21T04:08:42;9.67;;;5.27;;
12535;SDS011;6334;48.696;2.114;2024-02-21T04:11:13;9.77;;;5.20;;
12535;SDS011;6334;48.696;2.114;2024-02-21T04:13:43;7.90;;;4.97;;
12535;SDS011;6334;48.696;2.114;2024-02-21T04:16:14;12.07;;;5.53;;
12535;SDS011;6334;48.696;2.114;2024-02-21T04:18:44;11.10;;;5.67;;
12535;SDS011;6334;48.696;2.114;2024-02-21T04:21:16;8.70;;;5.20;;
12535;SDS011;6334;48.696;2.114;2024-02-21T04:23:46;9.50;;;5.10;;
12535;SDS011;6334;48.696;2.114;2024-02-21T04:26:17;9.43;;;5.30;;
12535;SDS011;6334;48.696;2.114;2024-02-21T04:28:47;11.57;;;5.40;;
12535;SDS011;6334;48.696;2.114;2024-02-21T04:31:18;9.33;;;4.50;;
12535;SDS011;6334;48.696;2.114;2024-02-21T04:33:48;8.83;;;4.90;;
12535;SDS011;6334;48.696;2.114;2024-02-21T04:36:19;8.80;;;4.90;;
12535;SDS011;6334;48.696;2.114;2024-02-21T04:38:48;9.30;;;5.10;;
12535;SDS011;6334;48.696;2.114;2024-02-21T04:41:19;7.83;;;5.10;;
12535;SDS011;6334;48.696;2.114;2024-02-21T04:43:49;9.67;;;5.20;;
12535;SDS011;6334;48.696;2.114;2024-02-21T04:46:19;8.37;;;5.13;;
12535;SDS011;6334;48.696;2.114;2024-02-21T04:48:50;7.10;;;4.90;;
12535;SDS011;6334;48.696;2.114;2024-02-21T04:51:20;8.93;;;5.37;;
12535;SDS011;6334;48.696;2.114;2024-02-21T04:53:51;10.20;;;5.30;;
12535;SDS011;6334;48.696;2.114;2024-02-21T04:56:21;9.50;;;5.40;;
12535;SDS011;6334;48.696;2.114;2024-02-21T04:58:52;7.53;;;4.73;;
12535;SDS011;6334;48.696;2.114;2024-02-21T05:01:22;10.47;;;5.43;;
12535;SDS011;6334;48.696;2.114;2024-02-21T05:03:53;9.40;;;5.40;;
12535;SDS011;6334;48.696;2.114;2024-02-21T05:06:23;9.33;;;5.23;;
12535;SDS011;6334;48.696;2.114;2024-02-21T05:08:54;10.73;;;5.63;;
12535;SDS011;6334;48.696;2.114;2024-02-21T05:11:23;9.73;;;5.27;;
12535;SDS011;6334;48.696;2.114;2024-02-21T05:13:54;10.30;;;5.30;;
12535;SDS011;6334;48.696;2.114;2024-02-21T05:16:24;10.13;;;5.07;;
12535;SDS011;6334;48.696;2.114;2024-02-21T05:18:54;8.37;;;5.33;;
12535;SDS011;6334;48.696;2.114;2024-02-21T05:21:25;11.30;;;5.20;;
12535;SDS011;6334;48.696;2.114;2024-02-21T05:23:55;7.83;;;4.77;;
12535;SDS011;6334;48.696;2.114;2024-02-21T05:26:26;8.87;;;5.20;;
12535;SDS011;6334;48.696;2.114;2024-02-21T05:28:56;10.43;;;5.30;;
12535;SDS011;6334;48.696;2.114;2024-02-21T05:31:28;8.90;;;5.50;;
12535;SDS011;6334;48.696;2.114;2024-02-21T05:33:57;10.07;;;5.47;;
12535;SDS011;6334;48.696;2.114;2024-02-21T05:36:28;9.70;;;5.33;;
12535;SDS011;6334;48.696;2.114;2024-02-21T05:38:58;8.57;;;5.20;;
12535;SDS011;6334;48.696;2.114;2024-02-21T05:41:29;10.07;;;5.47;;
12535;SDS011;6334;48.696;2.114;2024-02-21T05:43:59;11.07;;;5.30;;
12535;SDS011;6334;48.696;2.114;2024-02-21T05:46:30;9.70;;;5.63;;
12535;SDS011;6334;48.696;2.114;2024-02-21T05:49:00;7.57;;;4.80;;
12535;SDS011;6334;48.696;2.114;2024-02-21T05:51:34;8.43;;;5.20;;
12535;SDS011;6334;48.696;2.114;2024-02-21T05:54:04;10.53;;;5.37;;
12535;SDS011;6334;48.696;2.114;2024-02-21T05:56:34;8.23;;;5.10;;
12535;SDS011;6334;48.696;2.114;2024-02-21T05:59:05;8.13;;;5.13;;
12535;SDS011;6334;48.696;2.114;2024-02-21T06:01:35;7.97;;;4.87;;
12535;SDS011;6334;48.696;2.114;2024-02-21T06:04:05;9.30;;;5.50;;
12535;SDS011;6334;48.696;2.114;2024-02-21T06:06:36;7.83;;;4.93;;
12535;SDS011;6334;48.696;2.114;2024-02-21T06:09:06;8.93;;;5.03;;
12535;SDS011;6334;48.696;2.114;2024-02-21T06:11:37;9.60;;;5.50;;
12535;SDS011;6334;48.696;2.114;2024-02-21T06:14:07;10.00;;;5.43;;
12535;SDS011;6334;48.696;2.114;2024-02-21T06:16:38;10.87;;;5.27;;
12535;SDS011;6334;48.696;2.114;2024-02-21T06:19:08;9.97;;;5.30;;
12535;SDS011;6334;48.696;2.114;2024-02-21T06:21:38;9.27;;;5.70;;
12535;SDS011;6334;48.696;2.114;2024-02-21T06:24:08;8.13;;;5.23;;
12535;SDS011;6334;48.696;2.114;2024-02-21T06:26:40;8.33;;;4.60;;
12535;SDS011;6334;48.696;2.114;2024-02-21T06:29:10;6.77;;;4.50;;
12535;SDS011;6334;48.696;2.114;2024-02-21T06:31:40;10.90;;;5.00;;
12535;SDS011;6334;48.696;2.114;2024-02-21T06:34:10;9.50;;;4.90;;
12535;SDS011;6334;48.696;2.114;2024-02-21T06:36:41;9.83;;;5.23;;
12535;SDS011;6334;48.696;2.114;2024-02-21T06:39:11;13.13;;;5.20;;
12535;SDS011;6334;48.696;2.114;2024-02-21T06:41:42;8.53;;;4.83;;
12535;SDS011;6334;48.696;2.114;2024-02-21T06:44:12;8.10;;;4.80;;
12535;SDS011;6334;48.696;2.114;2024-02-21T06:46:43;5.53;;;4.10;;
12535;SDS011;6334;48.696;2.114;2024-02-21T06:49:13;9.27;;;4.70;;
12535;SDS011;6334;48.696;2.114;2024-02-21T06:51:44;9.37;;;4.50;;
12535;SDS011;6334;48.696;2.114;2024-02-21T06:54:14;8.37;;;5.03;;
12535;SDS011;6334;48.696;2.114;2024-02-21T06:56:45;8.30;;;4.90;;
12535;SDS011;6334;48.696;2.114;2024-02-21T06:59:15;10.43;;;5.27;;
12535;SDS011;6334;48.696;2.114;2024-02-21T07:01:49;7.47;;;4.90;;
12535;SDS011;6334;48.696;2.114;2024-02-21T07:04:19;7.23;;;4.30;;
12535;SDS011;6334;48.696;2.114;2024-02-21T07:06:49;7.80;;;4.43;;
12535;SDS011;6334;48.696;2.114;2024-02-21T07:09:20;9.03;;;4.87;;
12535;SDS011;6334;48.696;2.114;2024-02-21T07:11:50;9.93;;;4.90;;
12535;SDS011;6334;48.696;2.114;2024-02-21T07:14:21;11.17;;;5.20;;
12535;SDS011;6334;48.696;2.114;2024-02-21T07:16:50;9.03;;;5.20;;
12535;SDS011;6334;48.696;2.114;2024-02-21T07:19:21;8.00;;;4.83;;
12535;SDS011;6334;48.696;2.114;2024-02-21T07:21:51;8.27;;;4.50;;
12535;SDS011;6334;48.696;2.114;2024-02-21T07:24:22;9.13;;;4.87;;
12535;SDS011;6334;48.696;2.114;2024-02-21T07:26:52;9.47;;;5.50;;
12535;SDS011;6334;48.696;2.114;2024-02-21T07:29:22;8.50;;;4.90;;
12535;SDS011;6334;48.696;2.114;2024-02-21T07:31:53;7.40;;;4.60;;
12535;SDS011;6334;48.696;2.114;2024-02-21T07:34:23;6.60;;;4.73;;
12535;SDS011;6334;48.696;2.114;2024-02-21T07:36:54;8.37;;;4.93;;
12535;SDS011;6334;48.696;2.114;2024-02-21T07:39:24;7.07;;;4.60;;
12535;SDS011;6334;48.696;2.114;2024-02-21T07:41:55;9.13;;;4.50;;
12535;SDS011;6334;48.696;2.114;2024-02-21T07:44:25;6.53;;;4.23;;
12535;SDS011;6334;48.696;2.114;2024-02-21T07:46:56;7.40;;;4.60;;
12535;SDS011;6334;48.696;2.114;2024-02-21T07:49:26;6.10;;;4.43;;
12535;SDS011;6334;48.696;2.114;2024-02-21T07:51:57;9.10;;;4.80;;
12535;SDS011;6334;48.696;2.114;2024-02-21T07:54:27;7.53;;;4.20;;
12535;SDS011;6334;48.696;2.114;2024-02-21T07:56:57;7.37;;;4.30;;
12535;SDS011;6334;48.696;2.114;2024-02-21T07:59:29;10.37;;;4.60;;
12535;SDS011;6334;48.696;2.114;2024-02-21T08:01:58;8.00;;;4.27;;
12535;SDS011;6334;48.696;2.114;2024-02-21T08:04:29;6.87;;;4.20;;
12535;SDS011;6334;48.696;2.114;2024-02-21T08:06:59;6.97;;;4.57;;
12535;SDS011;6334;48.696;2.114;2024-02-21T08:09:30;7.50;;;4.37;;
12535;SDS011;6334;48.696;2.114;2024-02-21T08:12:00;7.63;;;4.30;;
12535;SDS011;6334;48.696;2.114;2024-02-21T08:14:31;8.97;;;4.30;;
12535;SDS011;6334;48.696;2.114;2024-02-21T08:17:01;7.13;;;4.20;;
12535;SDS011;6334;48.696;2.114;2024-02-21T08:19:32;5.43;;;4.00;;
12535;SDS011;6334;48.696;2.114;2024-02-21T08:22:02;6.43;;;4.43;;
12535;SDS011;6334;48.696;2.114;2024-02-21T08:24:32;6.37;;;4.13;;
12535;SDS011;6334;48.696;2.114;2024-02-21T08:27:03;7.33;;;4.27;;
12535;SDS011;6334;48.696;2.114;2024-02-21T08:29:32;6.50;;;4.40;;
12535;SDS011;6334;48.696;2.114;2024-02-21T08:32:03;6.60;;;4.30;;
12535;SDS011;6334;48.696;2.114;2024-02-21T08:34:33;6.30;;;4.20;;
12535;SDS011;6334;48.696;2.114;2024-02-21T08:37:04;6.53;;;4.10;;
12535;SDS011;6334;48.696;2.114;2024-02-21T08:39:34;6.03;;;4.10;;
12535;SDS011;6334;48.696;2.114;2024-02-21T08:42:05;5.57;;;4.33;;
12535;SDS011;6334;48.696;2.114;2024-02-21T08:44:35;5.83;;;4.40;;
12535;SDS011;6334;48.696;2.114;2024-02-21T08:47:06;6.50;;;4.53;;
12535;SDS011;6334;48.696;2.114;2024-02-21T08:49:36;8.13;;;4.53;;
12535;SDS011;6334;48.696;2.114;2024-02-21T08:52:07;7.90;;;4.30;;
12535;SDS011;6334;48.696;2.114;2024-02-21T08:54:37;5.93;;;4.17;;
12535;SDS011;6334;48.696;2.114;2024-02-21T08:57:07;5.77;;;4.33;;
12535;SDS011;6334;48.696;2.114;2024-02-21T08:59:37;6.23;;;4.10;;
12535;SDS011;6334;48.696;2.114;2024-02-21T09:02:08;12.13;;;4.60;;
12535;SDS011;6334;48.696;2.114;2024-02-21T09:04:38;4.83;;;4.33;;
12535;SDS011;6334;48.696;2.114;2024-02-21T09:07:08;6.30;;;4.23;;
12535;SDS011;6334;48.696;2.114;2024-02-21T09:09:39;6.23;;;4.50;;
12535;SDS011;6334;48.696;2.114;2024-02-21T09:12:09;10.43;;;4.73;;
12535;SDS011;6334;48.696;2.114;2024-02-21T09:14:40;6.73;;;4.50;;
12535;SDS011;6334;48.696;2.114;2024-02-21T09:17:10;7.33;;;4.37;;
12535;SDS011;6334;48.696;2.114;2024-02-21T09:19:41;6.97;;;4.27;;
12535;SDS011;6334;48.696;2.114;2024-02-21T09:22:11;7.20;;;3.80;;
12535;SDS011;6334;48.696;2.114;2024-02-21T09:24:42;5.97;;;4.27;;
12535;SDS011;6334;48.696;2.114;2024-02-21T09:27:12;7.20;;;4.80;;
12535;SDS011;6334;48.696;2.114;2024-02-21T09:29:43;11.47;;;4.30;;
12535;SDS011;6334;48.696;2.114;2024-02-21T09:32:13;8.27;;;4.60;;
12535;SDS011;6334;48.696;2.114;2024-02-21T09:34:44;8.07;;;4.47;;
12535;SDS011;6334;48.696;2.114;2024-02-21T09:37:14;4.93;;;3.77;;
12535;SDS011;6334;48.696;2.114;2024-02-21T09:39:44;6.80;;;4.40;;
12535;SDS011;6334;48.696;2.114;2024-02-21T09:42:15;7.40;;;4.10;;
12535;SDS011;6334;48.696;2.114;2024-02-21T09:44:45;5.60;;;4.27;;
12535;SDS011;6334;48.696;2.114;2024-02-21T09:49:49;5.60;;;4.10;;
12535;SDS011;6334;48.696;2.114;2024-02-21T09:52:19;7.63;;;4.23;;
12535;SDS011;6334;48.696;2.114;2024-02-21T09:54:50;7.40;;;4.40;;
12535;SDS011;6334;48.696;2.114;2024-02-21T09:57:20;9.97;;;3.80;;
12535;SDS011;6334;48.696;2.114;2024-02-21T09:59:51;6.90;;;4.00;;
12535;SDS011;6334;48.696;2.114;2024-02-21T10:02:21;7.07;;;3.80;;
12535;SDS011;6334;48.696;2.114;2024-02-21T10:04:51;11.47;;;4.17;;
12535;SDS011;6334;48.696;2.114;2024-02-21T10:07:21;10.40;;;4.53;;
12535;SDS011;6334;48.696;2.114;2024-02-21T10:10:01;7.03;;;4.37;;
12535;SDS011;6334;48.696;2.114;2024-02-21T10:12:30;7.93;;;4.20;;
12535;SDS011;6334;48.696;2.114;2024-02-21T10:15:04;8.80;;;4.53;;
12535;SDS011;6334;48.696;2.114;2024-02-21T10:17:34;9.47;;;4.43;;
12535;SDS011;6334;48.696;2.114;2024-02-21T10:20:10;9.27;;;5.10;;
12535;SDS011;6334;48.696;2.114;2024-02-21T10:22:38;11.70;;;5.17;;
12535;SDS011;6334;48.696;2.114;2024-02-21T10:25:08;10.07;;;5.10;;
12535;SDS011;6334;48.696;2.114;2024-02-21T10:27:39;12.20;;;5.33;;
12535;SDS011;6334;48.696;2.114;2024-02-21T10:30:19;10.93;;;5.10;;
12535;SDS011;6334;48.696;2.114;2024-02-21T10:32:52;11.60;;;4.90;;
12535;SDS011;6334;48.696;2.114;2024-02-21T10:35:29;10.70;;;4.90;;
12535;SDS011;6334;48.696;2.114;2024-02-21T10:37:57;12.87;;;5.13;;
12535;SDS011;6334;48.696;2.114;2024-02-21T10:40:27;11.03;;;4.67;;
12535;SDS011;6334;48.696;2.114;2024-02-21T10:43:00;5.50;;;4.20;;
12535;SDS011;6334;48.696;2.114;2024-02-21T10:45:31;8.97;;;4.80;;
12535;SDS011;6334;48.696;2.114;2024-02-21T10:48:12;7.80;;;4.03;;
12535;SDS011;6334;48.696;2.114;2024-02-21T10:50:56;9.47;;;4.30;;
12535;SDS011;6334;48.696;2.114;2024-02-21T10:58:49;5.83;;;4.00;;
12535;SDS011;6334;48.696;2.114;2024-02-21T11:01:19;6.27;;;4.03;;
12535;SDS011;6334;48.696;2.114;2024-02-21T11:03:51;9.50;;;4.53;;
12535;SDS011;6334;48.696;2.114;2024-02-21T11:06:20;8.30;;;4.23;;
12535;SDS011;6334;48.696;2.114;2024-02-21T11:09:00;8.13;;;4.30;;
12535;SDS011;6334;48.696;2.114;2024-02-21T11:11:39;6.83;;;4.53;;
12535;SDS011;6334;48.696;2.114;2024-02-21T11:14:08;8.40;;;4.37;;
12535;SDS011;6334;48.696;2.114;2024-02-21T11:16:41;7.40;;;4.50;;
12535;SDS011;6334;48.696;2.114;2024-02-21T11:19:27;5.87;;;3.97;;
12535;SDS011;6334;48.696;2.114;2024-02-21T11:21:57;7.30;;;4.30;;
12535;SDS011;6334;48.696;2.114;2024-02-21T11:24:27;7.03;;;4.33;;
12535;SDS011;6334;48.696;2.114;2024-02-21T11:27:16;5.07;;;3.80;;
12535;SDS011;6334;48.696;2.114;2024-02-21T11:32:15;7.57;;;4.20;;
12535;SDS011;6334;48.696;2.114;2024-02-21T11:34:54;9.77;;;4.50;;
12535;SDS011;6334;48.696;2.114;2024-02-21T11:37:28;7.17;;;3.97;;
12535;SDS011;6334;48.696;2.114;2024-02-21T11:40:01;7.07;;;4.00;;
12535;SDS011;6334;48.696;2.114;2024-02-21T11:42:32;7.33;;;4.27;;
12535;SDS011;6334;48.696;2.114;2024-02-21T11:45:01;5.30;;;3.80;;
12535;SDS011;6334;48.696;2.114;2024-02-21T11:47:32;9.00;;;4.60;;
12535;SDS011;6334;48.696;2.114;2024-02-21T11:50:01;8.80;;;4.43;;
12535;SDS011;6334;48.696;2.114;2024-02-21T11:52:31;6.37;;;4.50;;
12535;SDS011;6334;48.696;2.114;2024-02-21T11:55:01;5.77;;;4.20;;
12535;SDS011;6334;48.696;2.114;2024-02-21T11:57:32;8.27;;;4.20;;
12535;SDS011;6334;48.696;2.114;2024-02-21T12:00:11;8.20;;;4.30;;
12535;SDS011;6334;48.696;2.114;2024-02-21T12:02:40;5.93;;;4.27;;
12535;SDS011;6334;48.696;2.114;2024-02-21T12:05:10;7.03;;;3.70;;
12535;SDS011;6334;48.696;2.114;2024-02-21T12:07:40;4.97;;;3.53;;
12535;SDS011;6334;48.696;2.114;2024-02-21T12:10:11;4.40;;;4.00;;
12535;SDS011;6334;48.696;2.114;2024-02-21T12:12:41;7.97;;;4.37;;
12535;SDS011;6334;48.696;2.114;2024-02-21T12:15:12;6.50;;;4.00;;
12535;SDS011;6334;48.696;2.114;2024-02-21T12:17:42;7.20;;;3.90;;
12535;SDS011;6334;48.696;2.114;2024-02-21T12:20:13;6.50;;;4.20;;
12535;SDS011;6334;48.696;2.114;2024-02-21T12:22:43;7.07;;;4.20;;
12535;SDS011;6334;48.696;2.114;2024-02-21T12:25:16;8.13;;;4.30;;
12535;SDS011;6334;48.696;2.114;2024-02-21T12:27:46;6.77;;;3.77;;
12535;SDS011;6334;48.696;2.114;2024-02-21T12:30:16;6.53;;;4.03;;
12535;SDS011;6334;48.696;2.114;2024-02-21T12:32:46;7.40;;;4.10;;
12535;SDS011;6334;48.696;2.114;2024-02-21T12:35:17;6.63;;;4.17;;
12535;SDS011;6334;48.696;2.114;2024-02-21T12:37:47;5.47;;;4.03;;
12535;SDS011;6334;48.696;2.114;2024-02-21T12:40:18;6.60;;;3.80;;
12535;SDS011;6334;48.696;2.114;2024-02-21T12:42:48;8.73;;;4.40;;
12535;SDS011;6334;48.696;2.114;2024-02-21T12:45:19;6.40;;;4.20;;
12535;SDS011;6334;48.696;2.114;2024-02-21T12:47:49;6.90;;;4.60;;
12535;SDS011;6334;48.696;2.114;2024-02-21T12:50:21;7.47;;;4.27;;
12535;SDS011;6334;48.696;2.114;2024-02-21T12:52:51;8.67;;;4.50;;
12535;SDS011;6334;48.696;2.114;2024-02-21T12:55:22;7.17;;;3.90;;
12535;SDS011;6334;48.696;2.114;2024-02-21T12:57:53;6.80;;;4.30;;
12535;SDS011;6334;48.696;2.114;2024-02-21T13:00:23;8.97;;;4.53;;
12535;SDS011;6334;48.696;2.114;2024-02-21T13:02:53;6.00;;;4.37;;
12535;SDS011;6334;48.696;2.114;2024-02-21T13:05:24;7.60;;;4.50;;
12535;SDS011;6334;48.696;2.114;2024-02-21T13:07:54;8.07;;;4.67;;
12535;SDS011;6334;48.696;2.114;2024-02-21T13:10:25;6.63;;;4.30;;
12535;SDS011;6334;48.696;2.114;2024-02-21T13:12:55;5.97;;;4.30;;
12535;SDS011;6334;48.696;2.114;2024-02-21T13:15:26;8.03;;;4.57;;
12535;SDS011;6334;48.696;2.114;2024-02-21T13:17:56;9.73;;;4.47;;
12535;SDS011;6334;48.696;2.114;2024-02-21T13:20:26;9.90;;;4.30;;
12535;SDS011;6334;48.696;2.114;2024-02-21T13:22:56;8.80;;;4.53;;
12535;SDS011;6334;48.696;2.114;2024-02-21T13:25:27;8.90;;;4.80;;
12535;SDS011;6334;48.696;2.114;2024-02-21T13:27:57;7.77;;;4.63;;
12535;SDS011;6334;48.696;2.114;2024-02-21T13:30:28;7.50;;;4.63;;
12535;SDS011;6334;48.696;2.114;2024-02-21T13:32:58;9.93;;;5.03;;
12535;SDS011;6334;48.696;2.114;2024-02-21T13:35:28;6.97;;;4.73;;
12535;SDS011;6334;48.696;2.114;2024-02-21T13:37:59;7.30;;;4.60;;
12535;SDS011;6334;48.696;2.114;2024-02-21T13:40:30;7.80;;;4.47;;
12535;SDS011;6334;48.696;2.114;2024-02-21T13:43:00;8.60;;;4.63;;
12535;SDS011;6334;48.696;2.114;2024-02-21T13:45:31;8.77;;;4.87;;
12535;SDS011;6334;48.696;2.114;2024-02-21T13:48:01;7.27;;;4.80;;
12535;SDS011;6334;48.696;2.114;2024-02-21T13:50:32;8.77;;;4.90;;
12535;SDS011;6334;48.696;2.114;2024-02-21T13:53:02;9.03;;;5.07;;
12535;SDS011;6334;48.696;2.114;2024-02-21T13:55:32;8.50;;;4.70;;
12535;SDS011;6334;48.696;2.114;2024-02-21T13:58:03;6.53;;;4.40;;
12535;SDS011;6334;48.696;2.114;2024-02-21T14:00:33;6.80;;;4.17;;
12535;SDS011;6334;48.696;2.114;2024-02-21T14:03:04;10.83;;;4.97;;
12535;SDS011;6334;48.696;2.114;2024-02-21T14:05:34;9.80;;;5.17;;
12535;SDS011;6334;48.696;2.114;2024-02-21T14:08:05;6.97;;;4.57;;
12535;SDS011;6334;48.696;2.114;2024-02-21T14:10:35;8.67;;;4.77;;
12535;SDS011;6334;48.696;2.114;2024-02-21T14:13:06;7.60;;;4.83;;
12535;SDS011;6334;48.696;2.114;2024-02-21T14:15:36;8.63;;;5.03;;
12535;SDS011;6334;48.696;2.114;2024-02-21T14:18:08;8.87;;;5.10;;
12535;SDS011;6334;48.696;2.114;2024-02-21T14:20:39;6.30;;;4.70;;
12535;SDS011;6334;48.696;2.114;2024-02-21T14:23:09;8.90;;;5.17;;
12535;SDS011;6334;48.696;2.114;2024-02-21T14:25:39;6.50;;;4.80;;
12535;SDS011;6334;48.696;2.114;2024-02-21T14:28:10;7.27;;;4.70;;
12535;SDS011;6334;48.696;2.114;2024-02-21T14:30:40;7.97;;;4.77;;
12535;SDS011;6334;48.696;2.114;2024-02-21T14:33:11;6.87;;;4.63;;
12535;SDS011;6334;48.696;2.114;2024-02-21T14:35:41;6.23;;;4.63;;
12535;SDS011;6334;48.696;2.114;2024-02-21T14:38:12;6.00;;;4.30;;
12535;SDS011;6334;48.696;2.114;2024-02-21T14:40:41;11.10;;;5.47;;
12535;SDS011;6334;48.696;2.114;2024-02-21T14:43:12;7.80;;;4.80;;
12535;SDS011;6334;48.696;2.114;2024-02-21T14:45:43;7.00;;;4.87;;
12535;SDS011;6334;48.696;2.114;2024-02-21T14:48:13;7.37;;;4.77;;
12535;SDS011;6334;48.696;2.114;2024-02-21T14:50:43;7.27;;;4.83;;
12535;SDS011;6334;48.696;2.114;2024-02-21T14:53:14;9.17;;;4.57;;
12535;SDS011;6334;48.696;2.114;2024-02-21T14:55:44;9.20;;;5.20;;
12535;SDS011;6334;48.696;2.114;2024-02-21T14:58:15;7.07;;;4.67;;
12535;SDS011;6334;48.696;2.114;2024-02-21T15:00:45;8.13;;;4.37;;
12535;SDS011;6334;48.696;2.114;2024-02-21T15:03:16;8.50;;;5.13;;
12535;SDS011;6334;48.696;2.114;2024-02-21T15:05:46;10.00;;;4.70;;
12535;SDS011;6334;48.696;2.114;2024-02-21T15:08:16;8.67;;;4.77;;
12535;SDS011;6334;48.696;2.114;2024-02-21T15:10:47;8.07;;;4.90;;
12535;SDS011;6334;48.696;2.114;2024-02-21T15:13:18;9.00;;;4.70;;
12535;SDS011;6334;48.696;2.114;2024-02-21T15:15:48;5.83;;;4.33;;
12535;SDS011;6334;48.696;2.114;2024-02-21T15:18:19;8.33;;;4.53;;
12535;SDS011;6334;48.696;2.114;2024-02-21T15:20:49;6.53;;;4.63;;
12535;SDS011;6334;48.696;2.114;2024-02-21T15:23:20;9.63;;;5.13;;
12535;SDS011;6334;48.696;2.114;2024-02-21T15:25:50;6.17;;;4.50;;
12535;SDS011;6334;48.696;2.114;2024-02-21T15:28:21;10.10;;;4.67;;